Time;durP1;ratioP1;P1;durP2;ratioP2;P2;SDS_P1;SDS_P2;PMS_P1;PMS_P2;Temp;Humidity;BMP_temperature;BMP_pressure;BME280_temperature;BME280_humidity;BME280_pressure;Samples;Min_cycle;Max_cycle;Signal;HPM_P1;HPM_P2
2023/05/07 00:02:25;;;;;;;19.15;6.18;;;8.90;99.90;;;7.55;100.00;102010.34;5038741;28;20054;-78
2023/05/07 00:04:51;;;;;;;17.65;5.95;;;8.90;99.90;;;7.54;100.00;102010.38;5026944;28;20088;-77
2023/05/07 00:07:20;;;;;;;14.10;6.13;;;8.80;99.90;;;7.49;99.81;102006.94;5006144;28;20128;-78
2023/05/07 00:09:46;;;;;;;23.48;6.90;;;8.80;99.90;;;7.48;100.00;102010.47;5006335;28;20036;-77
2023/05/07 00:12:12;;;;;;;22.60;6.03;;;8.80;99.90;;;7.45;100.00;102008.75;5014166;28;20038;-77
2023/05/07 00:14:38;;;;;;;16.25;6.22;;;8.80;99.90;;;7.42;100.00;102008.78;5017472;28;20030;-77
2023/05/07 00:17:03;;;;;;;16.17;6.05;;;8.80;99.90;;;7.46;100.00;102009.63;4977078;28;20124;-77
2023/05/07 00:19:29;;;;;;;19.30;6.75;;;8.80;99.90;;;7.45;100.00;102010.47;5030095;28;20097;-78
2023/05/07 00:21:56;;;;;;;18.45;6.10;;;8.80;99.90;;;7.47;100.00;102009.56;4997750;28;20079;-77
2023/05/07 00:24:25;;;;;;;16.80;5.93;;;8.80;99.90;;;7.48;100.00;102013.94;4975244;28;20032;-77
2023/05/07 00:26:52;;;;;;;14.85;6.50;;;8.70;99.90;;;7.46;100.00;102001.75;5000725;28;20026;-77
2023/05/07 00:29:18;;;;;;;20.73;6.72;;;8.80;99.90;;;7.50;100.00;102000.81;5012509;28;20165;-78
2023/05/07 00:31:44;;;;;;;20.45;5.90;;;8.80;99.90;;;7.50;100.00;102001.69;4988220;28;20033;-77
2023/05/07 00:34:10;;;;;;;14.98;6.32;;;8.80;99.90;;;7.48;100.00;102003.47;5020246;28;20026;-78
2023/05/07 00:36:35;;;;;;;17.27;6.72;;;8.80;99.90;;;7.44;100.00;102000.91;5012853;28;20422;-78
2023/05/07 00:39:03;;;;;;;16.58;6.57;;;8.70;99.90;;;7.44;100.00;102006.16;5012479;28;20049;-77
2023/05/07 00:41:31;;;;;;;19.55;6.80;;;8.70;99.90;;;7.45;100.00;102014.00;4996477;28;20080;-76
2023/05/07 00:43:57;;;;;;;16.35;6.15;;;8.70;99.90;;;7.43;100.00;102010.53;4986324;28;20040;-77
2023/05/07 00:46:23;;;;;;;19.42;6.18;;;8.70;99.90;;;7.35;100.00;102009.75;4995259;28;20037;-77
2023/05/07 00:48:53;;;;;;;17.98;6.32;;;8.70;99.90;;;7.35;100.00;102004.50;5013861;28;20033;-77
2023/05/07 00:51:23;;;;;;;15.00;5.82;;;8.70;99.90;;;7.34;100.00;102001.03;4995450;28;20100;-78
2023/05/07 00:53:49;;;;;;;23.17;6.55;;;8.70;99.90;;;7.31;100.00;102010.66;4963596;28;20049;-77
2023/05/07 00:56:15;;;;;;;16.02;6.22;;;8.60;99.90;;;7.31;100.00;102010.66;4998553;28;20034;-77
2023/05/07 00:58:41;;;;;;;13.35;5.93;;;8.60;99.90;;;7.33;100.00;102008.91;5002987;28;20056;-77
2023/05/07 01:01:08;;;;;;;17.33;5.43;;;8.60;99.90;;;7.29;100.00;102007.19;5011286;28;20075;-78
2023/05/07 01:03:36;;;;;;;19.58;6.72;;;8.60;99.90;;;7.32;100.00;102009.78;4999027;28;20051;-76
2023/05/07 01:06:03;;;;;;;18.00;5.97;;;8.60;99.90;;;7.37;100.00;102006.22;5021379;28;20033;-77
2023/05/07 01:08:30;;;;;;;17.20;6.32;;;8.60;99.90;;;7.29;100.00;102004.59;5027102;28;20033;-77
2023/05/07 01:10:57;;;;;;;17.52;5.57;;;8.60;99.90;;;7.25;100.00;102010.75;5009731;28;20499;-77
2023/05/07 01:13:24;;;;;;;14.10;5.55;;;8.60;99.90;;;7.29;100.00;102007.19;5025086;28;20525;-77
2023/05/07 01:15:50;;;;;;;15.60;5.70;;;8.60;99.90;;;7.27;100.00;102006.34;5010903;28;20065;-77
2023/05/07 01:18:16;;;;;;;17.20;5.85;;;8.60;99.90;;;7.27;100.00;102011.59;5009226;28;20102;-77
2023/05/07 01:20:45;;;;;;;23.10;6.72;;;8.60;99.90;;;7.23;100.00;102013.38;4999376;28;20120;-77
2023/05/07 01:23:12;;;;;;;17.05;6.00;;;8.50;99.90;;;7.13;100.00;102007.38;4984304;28;20037;-77
2023/05/07 01:25:37;;;;;;;18.08;6.30;;;8.50;99.90;;;7.07;100.00;102015.31;5013115;28;20073;-77
2023/05/07 01:28:03;;;;;;;14.00;5.40;;;8.40;99.90;;;7.04;100.00;102017.97;5025399;28;20068;-77
2023/05/07 01:30:30;;;;;;;18.70;6.03;;;8.40;99.90;;;6.95;100.00;102016.34;4976267;28;20112;-77
2023/05/07 01:33:10;;;;;;;16.58;6.15;;;8.30;99.90;;;6.88;100.00;102016.41;4992803;28;20464;-77
2023/05/07 01:35:45;;;;;;;18.73;6.53;;;8.20;99.90;;;6.85;100.00;102014.69;5023137;28;20475;-77
2023/05/07 01:38:12;;;;;;;12.82;6.35;;;8.20;99.90;;;6.78;100.00;102008.66;5001582;28;20038;-77
2023/05/07 01:40:38;;;;;;;15.57;5.82;;;8.10;99.90;;;6.76;100.00;102007.81;5027604;28;20048;-77
2023/05/07 01:43:05;;;;;;;17.95;6.18;;;8.10;99.90;;;6.69;100.00;102007.88;5008498;28;20104;-77
2023/05/07 01:45:32;;;;;;;16.63;6.80;;;8.00;99.90;;;6.64;100.00;102014.91;4981625;28;20029;-77
2023/05/07 01:47:58;;;;;;;21.55;6.15;;;8.00;99.90;;;6.58;100.00;102016.69;5014936;28;20037;-77
2023/05/07 01:50:26;;;;;;;17.25;7.03;;;7.90;99.90;;;6.55;100.00;102008.00;5007464;28;20041;-76
2023/05/07 01:52:52;;;;;;;14.05;6.22;;;7.80;99.90;;;6.48;100.00;102015.06;5000716;28;20044;-76
2023/05/07 01:55:19;;;;;;;24.08;6.20;;;7.80;99.90;;;6.48;100.00;102008.94;5000699;28;20041;-77
2023/05/07 01:57:47;;;;;;;18.35;7.10;;;7.80;99.90;;;6.48;100.00;102011.53;5031074;28;20450;-77
2023/05/07 02:00:13;;;;;;;16.23;6.70;;;7.80;99.90;;;6.51;100.00;102017.63;4988446;28;20120;-76
2023/05/07 02:02:39;;;;;;;18.05;6.28;;;7.80;99.90;;;6.51;100.00;102016.78;5006585;28;20038;-77
2023/05/07 02:05:05;;;;;;;17.88;7.22;;;7.80;99.90;;;6.52;100.00;102015.88;5007339;28;20524;-77
2023/05/07 02:07:31;;;;;;;17.98;6.10;;;7.80;99.90;;;6.54;100.00;102014.09;4988633;28;20034;-77
2023/05/07 02:09:57;;;;;;;24.35;6.80;;;7.90;99.90;;;6.54;100.00;102019.34;5004755;28;20107;-77
2023/05/07 02:12:28;;;;;;;16.95;6.57;;;7.90;99.90;;;6.56;100.00;102022.81;5007073;28;20495;-77
2023/05/07 02:14:54;;;;;;;15.63;6.05;;;7.90;99.90;;;6.64;100.00;102026.22;4973416;28;20037;-77
2023/05/07 02:17:20;;;;;;;21.10;6.50;;;8.00;99.90;;;6.68;100.00;102029.69;4985414;28;20045;-76
2023/05/07 02:19:46;;;;;;;19.30;5.88;;;8.00;99.90;;;6.71;100.00;102025.28;5016339;28;20030;-77
2023/05/07 02:22:11;;;;;;;26.48;6.10;;;8.00;99.90;;;6.72;100.00;102024.41;5005717;28;20117;-77
2023/05/07 02:24:37;;;;;;;18.08;6.30;;;8.00;99.90;;;6.74;100.00;102021.78;5004373;28;20042;-78
2023/05/07 02:27:05;;;;;;;20.80;6.70;;;8.00;99.90;;;6.72;100.00;102027.03;4985602;28;20063;-78
2023/05/07 02:29:31;;;;;;;14.02;6.10;;;8.00;99.90;;;6.73;100.00;102022.66;4993507;28;20086;-77
2023/05/07 02:31:57;;;;;;;24.02;7.07;;;8.00;99.90;;;6.71;100.00;102025.28;5013604;28;20046;-77
2023/05/07 02:34:23;;;;;;;14.85;5.90;;;8.00;99.90;;;6.68;100.00;102020.09;4993957;28;21120;-76
2023/05/07 02:36:48;;;;;;;25.00;7.13;;;8.00;99.90;;;6.68;100.00;102027.94;5031458;28;20042;-77
2023/05/07 02:39:15;;;;;;;20.98;6.55;;;7.90;99.90;;;6.62;100.00;102024.53;5006354;28;20076;-78
2023/05/07 02:41:41;;;;;;;21.30;6.57;;;7.90;99.90;;;6.60;100.00;102024.53;5014088;28;20100;-77
2023/05/07 02:44:15;;;;;;;15.30;5.60;;;7.90;99.90;;;6.59;100.00;102020.19;4992011;28;20026;-78
2023/05/07 02:46:41;;;;;;;15.98;6.32;;;7.90;99.90;;;6.56;100.00;102022.81;5036093;28;20129;-77
2023/05/07 02:49:06;;;;;;;22.83;6.72;;;7.80;99.90;;;6.51;100.00;102025.47;5002511;28;20121;-77
2023/05/07 02:51:32;;;;;;;21.65;6.65;;;7.80;99.90;;;6.46;100.00;102021.19;4981025;28;20096;-77
2023/05/07 02:54:05;;;;;;;24.85;7.47;;;7.80;99.90;;;6.39;100.00;102017.72;5009724;28;20037;-77
2023/05/07 02:56:31;;;;;;;22.55;7.25;;;7.70;99.90;;;6.36;100.00;102021.25;5003503;28;20108;-77
2023/05/07 02:58:57;;;;;;;17.17;6.65;;;7.70;99.90;;;6.32;100.00;102019.53;5004469;28;20071;-77
2023/05/07 03:01:23;;;;;;;22.48;7.15;;;7.60;99.90;;;6.29;100.00;102014.34;5035864;28;20030;-77
2023/05/07 03:03:49;;;;;;;14.07;6.60;;;7.60;99.90;;;6.28;100.00;102015.19;5001361;28;20109;-77
2023/05/07 03:06:15;;;;;;;24.77;7.50;;;7.60;99.90;;;6.27;100.00;102023.09;4990904;28;20065;-77
2023/05/07 03:08:44;;;;;;;17.13;6.93;;;7.60;99.90;;;6.23;100.00;102019.59;5007638;28;20048;-77
2023/05/07 03:11:09;;;;;;;22.17;6.78;;;7.50;99.90;;;6.19;100.00;102017.03;5005013;28;20045;-77
2023/05/07 03:13:35;;;;;;;24.85;7.68;;;7.50;99.90;;;6.18;100.00;102016.19;5034299;28;20406;-77
2023/05/07 03:16:01;;;;;;;20.30;7.13;;;7.50;99.90;;;6.15;100.00;102018.78;5002034;28;20030;-77
2023/05/07 03:18:27;;;;;;;17.42;6.78;;;7.50;99.90;;;6.09;100.00;102013.59;4999347;28;20042;-77
2023/05/07 03:20:52;;;;;;;22.00;7.28;;;7.40;99.90;;;6.08;100.00;102012.75;5008035;28;20033;-77
2023/05/07 03:23:21;;;;;;;14.75;6.30;;;7.40;99.90;;;6.02;100.00;102009.31;5031684;28;20133;-77
2023/05/07 03:25:49;;;;;;;14.45;6.68;;;7.40;99.90;;;6.00;100.00;102011.06;5010127;28;20034;-77
2023/05/07 03:28:15;;;;;;;17.17;7.18;;;7.30;99.90;;;5.98;100.00;102010.22;5008959;28;20038;-76
2023/05/07 03:30:40;;;;;;;17.45;7.18;;;7.30;99.90;;;5.92;100.00;102011.97;5023383;28;20248;-77
2023/05/07 03:33:06;;;;;;;20.30;6.65;;;7.30;99.90;;;5.91;100.00;102022.44;5012688;28;20068;-77
2023/05/07 03:35:32;;;;;;;21.25;7.05;;;7.20;99.90;;;5.85;100.00;102012.91;4995341;28;20460;-76
2023/05/07 03:38:01;;;;;;;19.45;6.35;;;7.20;99.90;;;5.82;100.00;102012.91;5005309;28;20049;-77
2023/05/07 03:40:27;;;;;;;17.27;6.90;;;7.10;99.90;;;5.78;100.00;102015.53;5002840;28;20037;-77
2023/05/07 03:42:52;;;;;;;16.55;6.68;;;7.10;99.90;;;5.78;100.00;102016.41;4998728;28;22572;-77
2023/05/07 03:45:19;;;;;;;18.25;7.57;;;7.10;99.90;;;5.73;100.00;102023.41;5002026;28;20048;-77
2023/05/07 03:47:45;;;;;;;21.63;7.28;;;7.10;99.90;;;5.75;100.00;102027.75;5026680;28;20117;-77
2023/05/07 03:50:11;;;;;;;14.15;6.40;;;7.10;99.90;;;5.77;100.00;102030.38;4962011;28;20136;-77
2023/05/07 03:52:37;;;;;;;24.13;6.97;;;7.10;99.90;;;5.80;100.00;102030.31;4995466;28;20038;-77
2023/05/07 03:55:03;;;;;;;17.92;8.05;;;7.10;99.90;;;5.79;100.00;102028.63;5010435;28;20490;-77
2023/05/07 03:57:31;;;;;;;17.98;7.60;;;7.10;99.90;;;5.83;100.00;102040.78;5004035;28;20038;-78
2023/05/07 03:59:57;;;;;;;22.23;7.03;;;7.10;99.90;;;5.88;100.00;102038.16;5005388;28;20030;-77
2023/05/07 04:02:22;;;;;;;14.02;6.47;;;7.10;99.90;;;5.92;100.00;102037.25;5003117;28;20064;-76
2023/05/07 04:04:49;;;;;;;14.15;6.50;;;7.10;99.90;;;5.93;100.00;102046.81;4988419;28;20049;-77
2023/05/07 04:07:15;;;;;;;19.30;6.78;;;7.50;99.90;;;6.55;99.74;102055.13;4962057;28;20064;-77
2023/05/07 04:09:41;;;;;;;11.63;5.55;;;8.80;99.90;;;8.30;96.75;102062.59;4978497;28;20033;-77
2023/05/07 04:12:07;;;;;;;17.55;5.90;;;10.00;99.90;;;9.86;91.87;102078.06;5028167;28;20029;-78
2023/05/07 04:14:33;;;;;;;22.63;5.18;;;11.20;99.90;;;11.18;85.37;102086.28;5022633;28;20037;-78
2023/05/07 04:16:59;;;;;;;13.85;5.38;;;11.40;99.90;;;10.94;80.81;102079.91;5011873;28;20030;-78
2023/05/07 04:19:25;;;;;;;12.93;5.15;;;12.20;99.90;;;12.02;76.04;102086.47;4994682;28;20038;-78
2023/05/07 04:21:51;;;;;;;10.15;4.93;;;12.70;99.90;;;12.74;73.11;102101.78;5022886;28;20046;-77
2023/05/07 04:24:17;;;;;;;12.20;5.10;;;13.40;99.90;;;13.45;69.85;102105.47;5010016;28;20040;-78
2023/05/07 04:26:43;;;;;;;11.80;5.63;;;13.50;99.90;;;13.13;68.97;102103.94;5008969;28;20069;-77
2023/05/07 04:29:09;;;;;;;9.00;4.38;;;13.20;99.90;;;12.29;69.75;102097.97;5016141;28;20029;-77
2023/05/07 04:31:35;;;;;;;9.18;5.30;;;12.70;99.90;;;11.54;70.64;102094.06;5021768;28;20037;-78
2023/05/07 04:34:01;;;;;;;12.30;5.20;;;12.30;99.90;;;11.02;72.47;102093.75;5023996;28;20658;-78
2023/05/07 04:36:27;;;;;;;15.63;6.35;;;11.80;99.90;;;10.26;73.00;102092.09;5022912;28;20045;-77
2023/05/07 04:38:53;;;;;;;12.60;5.63;;;11.40;99.90;;;10.01;74.61;102091.78;5028204;23;20046;-77
2023/05/07 04:41:20;;;;;;;13.40;5.95;;;11.10;99.90;;;9.78;76.27;102108.94;5010385;28;20057;-78
2023/05/07 04:43:46;;;;;;;15.50;5.68;;;10.80;99.90;;;9.49;76.92;102099.03;4983600;28;20061;-78
2023/05/07 04:46:11;;;;;;;11.95;5.60;;;10.60;99.90;;;9.32;77.46;102093.22;4988372;28;20065;-77
2023/05/07 04:48:37;;;;;;;10.10;5.70;;;10.50;99.90;;;9.21;78.98;102102.19;4994966;28;20049;-78
2023/05/07 04:51:06;;;;;;;14.13;6.68;;;10.30;99.90;;;9.11;79.65;102100.59;5011154;28;20129;-78
2023/05/07 04:53:32;;;;;;;13.98;5.90;;;10.10;99.90;;;8.83;80.00;102106.38;5013463;28;20034;-77
2023/05/07 04:55:58;;;;;;;10.20;5.88;;;10.00;99.90;;;8.81;81.03;102102.91;5013321;28;20116;-77
2023/05/07 04:58:24;;;;;;;13.52;5.90;;;9.90;99.90;;;8.78;81.48;102108.19;4991149;28;20046;-77
2023/05/07 05:00:50;;;;;;;14.50;5.63;;;9.90;99.90;;;8.70;82.35;102110.09;5007297;28;20072;-77
2023/05/07 05:03:16;;;;;;;14.48;6.43;;;9.90;99.90;;;8.71;82.79;102105.72;4994549;28;20306;-77
2023/05/07 05:05:44;;;;;;;14.77;6.13;;;9.90;99.90;;;8.81;82.89;102107.28;4981790;28;20053;-77
2023/05/07 05:08:10;;;;;;;13.35;6.25;;;9.90;99.90;;;8.88;82.89;102106.31;4966250;28;20663;-77
2023/05/07 05:10:36;;;;;;;10.43;5.25;;;9.90;99.90;;;8.79;82.99;102103.81;4964554;28;20118;-77
2023/05/07 05:13:01;;;;;;;18.42;5.93;;;9.90;99.90;;;8.88;82.96;102114.19;5002099;28;20132;-77
2023/05/07 05:15:27;;;;;;;10.07;5.75;;;10.00;99.90;;;9.00;82.72;102108.69;5028443;28;20124;-77
2023/05/07 05:17:54;;;;;;;13.18;6.00;;;10.10;99.90;;;9.12;82.23;102118.13;5001200;28;20088;-77
2023/05/07 05:20:20;;;;;;;13.55;5.80;;;10.20;99.90;;;9.16;81.66;102118.94;5037728;23;20082;-78
2023/05/07 05:22:51;;;;;;;14.90;6.03;;;10.20;99.90;;;9.14;81.13;102126.00;5027136;28;20053;-78
2023/05/07 05:25:16;;;;;;;12.20;5.63;;;10.30;99.90;;;9.18;81.02;102120.66;5028492;28;20205;-77
2023/05/07 05:27:42;;;;;;;11.85;5.65;;;10.40;99.90;;;9.44;80.79;102120.16;5033972;28;20662;-78
2023/05/07 05:30:09;;;;;;;13.32;5.75;;;10.50;99.90;;;9.67;80.45;102131.09;5023759;28;20028;-78
2023/05/07 05:32:35;;;;;;;12.48;5.43;;;;;;;9.67;79.57;102136.34;4996030;28;20029;-77
2023/05/07 05:35:00;;;;;;;14.18;6.22;;;10.80;99.90;;;10.02;79.46;102132.97;5025827;28;20094;-77
2023/05/07 05:37:31;;;;;;;11.73;5.45;;;11.00;99.90;;;10.17;78.59;102129.13;5023554;28;20037;-77
2023/05/07 05:39:57;;;;;;;14.73;6.13;;;11.10;99.90;;;10.43;78.13;102134.72;5021265;28;20045;-77
2023/05/07 05:42:23;;;;;;;12.05;6.18;;;11.30;99.90;;;10.42;77.07;102132.97;4978198;28;20702;-76
2023/05/07 05:44:49;;;;;;;13.40;5.93;;;11.40;99.90;;;10.78;76.22;102133.00;5005683;28;20038;-77
2023/05/07 05:47:15;;;;;;;12.70;6.22;;;11.70;99.90;;;12.84;74.25;102161.34;5028580;28;20094;-77
2023/05/07 05:49:43;;;;;;;14.88;6.03;;;12.80;99.90;;;16.06;66.04;102183.13;5011978;28;20462;-76
2023/05/07 05:52:11;;;;;;;13.68;5.68;;;14.80;99.90;;;19.76;55.98;102195.16;4989012;28;20108;-77
2023/05/07 05:54:37;;;;;;;11.55;5.78;;;16.70;99.90;;;20.81;51.54;102197.34;5008986;28;20079;-77
2023/05/07 05:57:04;;;;;;;16.60;5.88;;;18.20;99.90;;;21.60;49.05;102225.06;5032197;28;20041;-77
2023/05/07 05:59:30;;;;;;;11.88;5.82;;;19.10;99.90;;;22.34;47.42;102232.41;5015284;28;20075;-77
2023/05/07 06:01:56;;;;;;;9.98;5.13;;;20.20;99.90;;;23.86;45.27;102245.09;5008955;28;20037;-76
2023/05/07 06:04:22;;;;;;;15.23;6.78;;;21.30;99.90;;;25.20;42.90;102258.44;5033816;28;20025;-77
2023/05/07 06:06:50;;;;;;;;;;;21.40;99.90;;;25.95;40.59;102269.03;5024264;28;20079;-78
2023/05/07 06:09:16;;;;;;;10.57;5.25;;;22.60;94.50;;;23.57;42.30;102239.31;5001403;28;19916;-77
2023/05/07 06:11:41;;;;;;;11.43;4.88;;;22.90;94.50;;;24.62;41.29;102262.31;5008686;28;20052;-76
2023/05/07 06:14:07;;;;;;;;;;;22.90;96.80;;;22.37;42.37;102254.47;5012549;28;20079;-77
2023/05/07 06:16:33;;;;;;;11.48;5.32;;;22.60;95.00;;;24.16;41.85;102272.25;5004654;28;19940;-77
2023/05/07 06:18:59;;;;;;;16.20;5.68;;;23.20;95.50;;;25.74;40.59;102290.59;4987531;28;20036;-77
2023/05/07 06:21:25;;;;;;;12.55;5.53;;;24.00;93.20;;;26.09;39.18;102299.34;5010041;28;20036;-76
2023/05/07 06:23:52;;;;;;;;;;;24.00;95.20;;;26.68;37.91;102303.97;4997137;28;20028;-77
2023/05/07 06:26:21;;;;;;;10.68;5.80;;;25.10;91.90;;;26.46;38.49;102309.56;4972553;28;19924;-78
2023/05/07 06:28:47;;;;;;;12.55;5.05;;;25.50;91.30;;;26.22;38.27;102316.19;4953837;28;20070;-78
2023/05/07 06:31:21;;;;;;;12.15;5.20;;;25.30;89.20;;;25.29;38.98;102301.66;5019880;28;20149;-77
2023/05/07 06:33:48;;;;;;;13.38;4.93;;;25.00;89.10;;;24.90;39.81;102306.69;4993168;28;20055;-77
2023/05/07 06:36:14;;;;;;;9.98;4.93;;;25.10;89.50;;;25.54;38.61;102323.84;5038268;28;20045;-77
2023/05/07 06:38:40;;;;;;;10.05;4.55;;;25.00;87.30;;;23.98;39.50;102306.00;5030352;28;20097;-77
2023/05/07 06:41:07;;;;;;;12.05;4.95;;;24.70;89.70;;;24.76;39.41;102323.97;5016770;28;20063;-77
2023/05/07 06:43:33;;;;;;;10.68;4.95;;;24.90;90.70;;;25.83;38.00;102345.63;5016488;28;20045;-77
2023/05/07 06:46:03;;;;;;;7.28;4.32;;;24.70;89.20;;;25.12;38.85;102343.47;4998064;28;21201;-77
2023/05/07 06:48:29;;;;;;;11.95;4.90;;;25.00;89.20;;;25.01;38.79;102343.53;5008067;28;20030;-77
2023/05/07 06:50:57;;;;;;;11.65;4.65;;;24.80;88.10;;;24.74;39.60;102342.09;5013508;28;20211;-77
2023/05/07 06:53:25;;;;;;;8.55;4.15;;;24.80;88.00;;;24.73;38.83;102344.91;5011806;28;20055;-77
2023/05/07 06:55:53;;;;;;;13.23;4.75;;;25.10;87.80;;;25.16;38.11;102352.16;5032265;28;20037;-77
2023/05/07 06:58:19;;;;;;;8.85;4.18;;;25.40;84.20;;;24.66;37.98;102362.56;5025968;28;20024;-77
2023/05/07 07:00:45;;;;;;;7.63;4.10;;;25.20;85.80;;;24.35;37.67;102363.16;5023181;28;20128;-76
2023/05/07 07:03:11;;;;;;;8.05;3.90;;;24.90;84.40;;;23.85;38.97;102362.59;5022758;28;20029;-77
2023/05/07 07:05:37;;;;;;;11.88;4.20;;;25.10;85.50;;;25.01;37.22;102388.44;5007478;28;20033;-77
2023/05/07 07:08:03;;;;;;;11.73;4.10;;;24.80;85.10;;;23.89;38.33;102377.53;5001523;28;20032;-76
2023/05/07 07:10:29;;;;;;;7.78;3.88;;;24.40;83.00;;;22.84;39.11;102368.28;5026870;28;20049;-77
2023/05/07 07:12:55;;;;;;;7.88;3.78;;;24.20;83.60;;;22.77;39.30;102383.16;5018078;28;20445;-77
2023/05/07 07:15:20;;;;;;;;;;;24.20;86.90;;;24.28;37.66;102396.06;5030181;28;20037;-78
2023/05/07 07:17:47;;;;;;;8.48;3.83;;;24.70;85.30;;;24.17;37.96;102404.97;5014940;28;19924;-77
2023/05/07 07:20:13;;;;;;;8.18;3.38;;;24.80;80.20;;;23.80;37.42;102397.06;5022381;28;20037;-77
2023/05/07 07:22:39;;;;;;;9.10;4.13;;;25.30;83.40;;;25.00;36.63;102419.09;5022287;28;20128;-78
2023/05/07 07:25:05;;;;;;;7.15;3.50;;;25.90;82.40;;;25.86;36.05;102423.59;4918851;28;20049;-77
2023/05/07 07:27:31;;;;;;;10.40;3.85;;;26.40;80.20;;;25.71;34.42;102431.16;4973966;28;20049;-77
2023/05/07 07:29:57;;;;;;;9.25;3.75;;;26.40;76.80;;;25.14;34.93;102416.09;4992116;28;20040;-78
2023/05/07 07:32:23;;;;;;;10.60;4.00;;;25.80;79.30;;;24.13;36.90;102408.88;5011781;28;20045;-78
2023/05/07 07:34:51;;;;;;;6.50;3.50;;;25.50;79.30;;;24.03;36.66;102410.56;5011252;28;20128;-78
2023/05/07 07:37:17;;;;;;;9.88;3.78;;;25.50;78.40;;;24.21;36.30;102413.66;5013927;28;20044;-78
2023/05/07 07:39:43;;;;;;;10.32;3.53;;;25.40;78.10;;;23.90;36.67;102411.50;4975251;28;20059;-77
2023/05/07 07:42:09;;;;;;;11.63;4.18;;;24.90;79.00;;;22.75;37.82;102401.19;4967881;28;20034;-78
2023/05/07 07:44:34;;;;;;;9.40;3.13;;;24.70;79.10;;;22.30;36.77;102398.13;4996506;28;20868;-78
2023/05/07 07:47:00;;;;;;;7.32;3.75;;;24.40;78.60;;;22.89;36.90;102410.94;5021622;28;20044;-77
2023/05/07 07:49:34;;;;;;;11.55;3.58;;;23.90;79.40;;;22.13;38.08;102393.88;4990653;28;20086;-77
2023/05/07 07:52:00;;;;;;;7.10;3.42;;;24.00;80.40;;;22.87;38.03;102405.69;5012812;28;20030;-77
2023/05/07 07:54:26;;;;;;;12.98;4.47;;;24.00;76.40;;;22.55;36.85;102409.78;4969129;28;20045;-76
2023/05/07 07:56:52;;;;;;;9.30;3.45;;;23.60;79.10;;;22.07;37.73;102407.72;5042518;28;20124;-77
2023/05/07 07:59:27;;;;;;;10.40;3.67;;;23.60;77.50;;;22.41;36.83;102413.47;5022684;28;20100;-78
2023/05/07 08:01:55;;;;;;;12.15;3.35;;;23.60;78.40;;;22.75;36.50;102414.63;5015553;28;20146;-77
2023/05/07 08:04:21;;;;;;;7.95;3.80;;;24.00;82.00;;;23.68;36.44;102430.22;4998846;28;20573;-78
2023/05/07 08:06:50;;;;;;;7.05;3.35;;;24.10;78.20;;;23.05;36.64;102424.16;4993701;28;20037;-77
2023/05/07 08:09:16;;;;;;;10.68;3.88;;;23.50;78.20;;;22.01;37.46;102410.81;5038715;28;20441;-78
2023/05/07 08:11:42;;;;;;;12.68;3.45;;;23.20;78.40;;;21.30;37.14;102404.81;4985295;28;20049;-79
2023/05/07 08:14:08;;;;;;;10.70;3.70;;;22.80;79.70;;;21.70;38.05;102405.72;4991970;28;20120;-78
2023/05/07 08:16:33;;;;;;;11.77;3.97;;;22.60;79.70;;;20.90;37.97;102400.19;5020022;28;20045;-78
2023/05/07 08:18:59;;;;;;;10.27;4.00;;;21.90;80.50;;;20.15;40.32;102387.94;5034349;28;20128;-78
2023/05/07 08:21:26;;;;;;;12.27;3.80;;;21.70;82.10;;;20.29;39.58;102383.47;5025091;28;22992;-76
2023/05/07 08:23:59;;;;;;;8.68;3.85;;;21.60;81.50;;;20.52;38.97;102383.00;5027880;28;20120;-77
2023/05/07 08:26:25;;;;;;;7.22;3.58;;;21.40;80.50;;;20.03;38.84;102381.53;5028523;28;20064;-77
2023/05/07 08:28:50;;;;;;;12.88;3.80;;;21.00;82.10;;;19.70;40.23;102376.38;5012388;28;20762;-77
2023/05/07 08:31:16;;;;;;;7.30;4.13;;;20.70;82.60;;;19.40;40.45;102380.72;5005116;28;20109;-77
2023/05/07 08:33:42;;;;;;;;;;;20.50;84.00;;;19.33;39.52;102374.03;4984957;28;20043;-76
2023/05/07 08:36:15;;;;;;;7.35;4.00;;;20.30;85.00;;;19.02;41.86;102364.22;4997175;28;19928;-77
2023/05/07 08:38:42;;;;;;;12.35;4.10;;;20.00;84.00;;;18.67;41.38;102352.81;5016662;28;20079;-76
2023/05/07 08:41:20;;;;;;;7.93;3.90;;;19.80;84.90;;;18.69;41.62;102348.25;5025156;28;20037;-76
2023/05/07 08:43:50;;;;;;;7.97;3.72;;;19.60;86.20;;;18.36;42.40;102341.16;4987229;28;20041;-77
2023/05/07 08:46:21;;;;;;;9.68;3.83;;;19.30;85.90;;;17.63;43.04;102336.03;4993040;28;20037;-77
2023/05/07 08:48:51;;;;;;;6.47;4.25;;;18.80;86.50;;;17.25;44.13;102314.84;4974369;28;20521;-77
2023/05/07 08:51:27;;;;;;;10.18;3.88;;;18.50;87.20;;;17.00;44.31;102316.06;5010080;28;20034;-77
2023/05/07 08:53:53;;;;;;;8.63;4.10;;;18.20;90.40;;;16.68;46.04;102309.56;4984243;28;20056;-77
2023/05/07 08:56:20;;;;;;;6.50;3.97;;;18.10;89.50;;;16.61;45.86;102301.03;5022103;28;20121;-77
2023/05/07 08:58:51;;;;;;;14.05;4.55;;;17.90;90.00;;;16.37;46.11;102305.69;5023539;28;20036;-76
2023/05/07 09:01:17;;;;;;;12.27;4.28;;;17.80;90.30;;;16.33;46.39;102288.16;5008597;28;20494;-77
2023/05/07 09:03:47;;;;;;;10.85;3.80;;;17.80;91.70;;;16.45;47.10;102299.16;5021181;28;20037;-77
2023/05/07 09:06:13;;;;;;;2.70;1.98;;;17.40;90.60;;;15.21;47.41;102285.03;5026594;28;20049;-76
2023/05/07 09:08:48;;;;;;;8.85;3.10;;;17.10;90.60;;;15.00;47.85;102281.47;5009020;28;20149;-76
2023/05/07 09:11:14;;;;;;;8.70;3.65;;;16.80;90.40;;;14.91;48.13;102282.72;5016488;28;20052;-77
2023/05/07 09:13:40;;;;;;;12.23;4.15;;;16.50;92.20;;;14.75;49.80;102282.47;5016232;28;20065;-77
2023/05/07 09:16:16;;;;;;;7.68;3.70;;;16.50;93.70;;;15.34;49.80;102291.56;5026956;28;20055;-77
2023/05/07 09:18:47;;;;;;;7.72;3.78;;;16.60;93.00;;;15.56;48.91;102296.81;5035646;28;20106;-77
2023/05/07 09:21:22;;;;;;;9.38;3.63;;;16.70;92.40;;;15.70;48.08;102298.91;5028083;28;20029;-76
2023/05/07 09:23:52;;;;;;;10.35;3.80;;;16.70;91.40;;;15.38;48.42;102287.84;4995671;28;20049;-77
2023/05/07 09:26:22;;;;;;;9.85;3.88;;;16.80;93.60;;;15.60;48.91;102284.28;5030162;28;20036;-76
2023/05/07 09:28:51;;;;;;;7.70;3.80;;;16.80;92.40;;;15.65;48.46;102286.75;5022139;28;20033;-77
2023/05/07 09:31:23;;;;;;;8.23;3.70;;;16.90;92.30;;;15.63;48.06;102291.25;4989988;28;20094;-77
2023/05/07 09:33:50;;;;;;;8.20;4.10;;;17.00;92.10;;;15.97;47.63;102291.53;5003220;28;20037;-76
2023/05/07 09:36:19;;;;;;;9.45;4.30;;;16.80;90.70;;;15.17;47.71;102275.47;4981569;28;20117;-76
2023/05/07 09:38:49;;;;;;;7.90;4.45;;;16.60;91.10;;;15.12;48.42;102270.38;5011249;28;20498;-76
2023/05/07 09:41:15;;;;;;;6.90;3.70;;;16.70;92.80;;;15.54;48.85;102272.13;4993322;28;20029;-76
2023/05/07 09:43:41;;;;;;;6.93;3.85;;;16.80;93.30;;;15.81;48.73;102285.19;5025482;28;20088;-76
2023/05/07 09:46:17;;;;;;;8.63;4.15;;;17.00;93.20;;;16.02;48.39;102277.19;5013231;28;20043;-77
2023/05/07 09:48:44;;;;;;;14.73;4.22;;;17.10;93.00;;;16.10;48.66;102273.25;5032598;28;20087;-76
2023/05/07 09:51:29;;;;;;;8.50;4.22;;;17.20;93.40;;;16.30;49.11;102272.34;5027179;28;20033;-76
2023/05/07 09:54:03;;;;;;;8.93;4.30;;;17.40;93.30;;;16.49;48.29;102276.81;5020113;28;20064;-77
2023/05/07 09:56:32;;;;;;;11.23;4.15;;;17.50;92.30;;;16.23;48.07;102265.59;5026560;28;20052;-76
2023/05/07 09:59:02;;;;;;;7.18;4.10;;;17.30;92.50;;;15.85;48.77;102259.34;5018225;28;20116;-76
2023/05/07 10:01:31;;;;;;;4.22;2.42;;;17.20;92.40;;;15.45;48.96;102261.06;4999766;28;20052;-77
2023/05/07 10:04:07;;;;;;;8.82;4.45;;;17.10;91.90;;;15.65;48.56;102263.69;4999701;28;20057;-77
2023/05/07 10:06:40;;;;;;;11.25;4.40;;;17.20;93.50;;;16.10;49.30;102265.28;5014254;28;20037;-76
2023/05/07 10:09:17;;;;;;;13.13;4.03;;;17.30;93.10;;;16.26;48.66;102267.22;5006929;28;20370;-76
2023/05/07 10:11:44;;;;;;;13.18;4.10;;;17.50;92.80;;;16.65;47.98;102275.16;4976487;28;20931;-77
2023/05/07 10:14:14;;;;;;;10.65;4.30;;;17.80;93.10;;;17.06;47.99;102280.28;4971812;28;20044;-76